Flight Track Log - Related Links

Times and Time Zones

All times are in EDT time to prevent confusion due to time zone crossing. See the SKQ53 flight status page for this flight to view local times or setup timezone preferences in your user account.

Time Position Orientation Groundspeed Altitude Reporting Facility
EDT Latitude Longitude Course Direction KTS MPH feet Rate Location/Type
Sun 06:26:34 AM 40.8000 -74.3500 159° South 154 177 3,500  Level New York TRACON
Sun 06:27:34 AM 40.7500 -74.3500 180° South 166 191 4,900 842 Climbing New York TRACON
Sun 06:28:28 AM 40.7000 -74.3500 180° South 213 245 5,100 500 Climbing New York TRACON
Sun 06:29:22 AM 40.6500 -74.3167 153° Southeast 216 249 5,800 850 Climbing New York TRACON
Sun 06:30:28 AM 40.5833 -74.3000 169° South 204 235 6,800 1,100 Climbing New York TRACON
Sun 06:31:00 AM 40.5152 -74.7443 155° Southeast  Level Estimated
Sun 06:31:22 AM 40.5333 -74.3000 180° South 197 227 8,000  Level New York TRACON
Sun 06:33:13 AM 40.4464 -74.2944 177° South 194 223 10,500 1,387 Climbing New York Center
Sun 06:34:15 AM 40.3864 -74.2886 176° South 194 223 12,000 1,400 Climbing New York Center
Sun 06:35:13 AM 40.3406 -74.2864 178° South 199 229 13,300 1,475 Climbing New York Center
Sun 06:36:13 AM 40.2825 -74.2781 174° South 199 229 14,900 1,438 Climbing New York Center
Sun 06:37:14 AM 40.2325 -74.2753 178° South 199 229 16,200 1,388 Climbing New York Center
Sun 06:38:14 AM 40.1856 -74.3056 206° Southwest 175 201 17,700 908 Climbing New York Center
Sun 06:39:13 AM 40.1450 -74.3417 214° Southwest 175 201 18,000 151 Climbing New York Center
Sun 06:40:13 AM 40.0956 -74.3881 216° Southwest 208 239 18,000  Level New York Center
Sun 06:41:14 AM 40.0483 -74.4314 215° Southwest 226 260 18,000  Level New York Center
Sun 06:42:15 AM 39.9969 -74.4831 218° Southwest 231 266 18,000  Level New York Center
Sun 06:43:13 AM 39.9386 -74.5394 217° Southwest 231 266 18,000  Level New York Center
Sun 06:45:18 AM 39.8283 -74.6378 214° Southwest 234 269 18,000  Level Washington Center
Sun 06:46:20 AM 39.7725 -74.6872 214° Southwest 244 281 18,000  Level Washington Center
Sun 06:47:20 AM 39.7167 -74.7392 216° Southwest 244 281 18,000  Level Washington Center
Sun 06:48:18 AM 39.6567 -74.7936 215° Southwest 244 281 18,000  Level Washington Center
Sun 06:49:18 AM 39.6092 -74.8400 217° Southwest 244 281 18,000  Level Washington Center
Sun 06:50:21 AM 39.5656 -74.8997 227° Southwest 244 281 18,000  Level Washington Center
Sun 06:51:18 AM 39.5139 -74.9567 220° Southwest 239 275 18,000  Level Washington Center
Sun 06:52:18 AM 39.4664 -75.0164 224° Southwest 239 275 18,000  Level Washington Center
Sun 06:53:20 AM 39.4167 -75.0786 224° Southwest 239 275 18,000  Level Washington Center
Sun 06:54:21 AM 39.3667 -75.1378 222° Southwest 239 275 18,000  Level Washington Center
Sun 06:55:21 AM 39.3169 -75.1944 221° Southwest 239 275 18,000  Level Washington Center
Sun 06:56:18 AM 39.2692 -75.2511 223° Southwest 239 275 18,000  Level Washington Center
Sun 06:57:20 AM 39.2214 -75.3103 224° Southwest 239 275 18,000 49 Level Washington Center
Sun 06:58:21 AM 39.1736 -75.3694 224° Southwest 239 275 18,100  Climbing Washington Center
Sun 06:59:19 AM 39.1236 -75.4258 221° Southwest 239 275 18,000 -51 Descending Washington Center
Sun 07:00:19 AM 39.0736 -75.4900 225° Southwest 239 275 18,000 50 Level Washington Center
Sun 07:01:19 AM 39.0258 -75.5461 222° Southwest 245 282 18,100  Climbing Washington Center
Sun 07:02:20 AM 38.9736 -75.6103 224° Southwest 245 282 18,000  Descending Washington Center
Sun 07:03:21 AM 38.9236 -75.6717 224° Southwest 245 282 18,100  Climbing Washington Center
Sun 07:04:18 AM 38.8736 -75.7275 221° Southwest 250 288 18,000 -50 Descending Washington Center
Sun 07:05:20 AM 38.8236 -75.7889 224° Southwest 250 288 18,000  Level Washington Center
Sun 07:06:18 AM 38.7733 -75.8500 223° Southwest 250 288 18,000  Level Washington Center
Sun 07:07:20 AM 38.7253 -75.9111 225° Southwest 250 288 18,000  Level Washington Center
Sun 07:08:21 AM 38.6731 -75.9692 221° Southwest 250 288 18,000  Level Washington Center
Sun 07:09:20 AM 38.6206 -76.0247 220° Southwest 250 288 18,000  Level Washington Center
Sun 07:10:18 AM 38.5683 -76.0828 221° Southwest 250 288 18,000  Level Washington Center
Sun 07:11:19 AM 38.5200 -76.1464 226° Southwest 250 288 18,000 49 Level Washington Center
Sun 07:12:20 AM 38.4739 -76.2017 223° Southwest 250 288 18,100  Climbing Washington Center
Sun 07:13:21 AM 38.4217 -76.2594 221° Southwest 250 288 18,000 -50 Descending Washington Center
Sun 07:14:20 AM 38.3711 -76.3200 223° Southwest 250 288 18,000  Level Washington Center
Sun 07:15:20 AM 38.3228 -76.3778 223° Southwest 250 288 18,000  Level Washington Center
Sun 07:16:21 AM 38.2703 -76.4353 221° Southwest 245 282 18,000 51 Level Washington Center
Sun 07:17:18 AM 38.2197 -76.4931 222° Southwest 245 282 18,100  Climbing Washington Center
Sun 07:18:20 AM 38.1736 -76.5531 226° Southwest 245 282 18,000 -50 Descending Washington Center
Sun 07:19:19 AM 38.1231 -76.6081 221° Southwest 245 282 18,000  Level Washington Center
Sun 07:20:20 AM 38.0725 -76.6653 222° Southwest 240 276 18,000  Level Washington Center
Sun 07:21:18 AM 38.0261 -76.7200 223° Southwest 240 276 18,000  Level Washington Center
Sun 07:22:20 AM 37.9797 -76.7719 221° Southwest 240 276 18,000  Level Washington Center
Sun 07:23:18 AM 37.9311 -76.8292 223° Southwest 240 276 18,000  Level Washington Center
Sun 07:24:19 AM 37.8825 -76.8861 223° Southwest 240 276 18,000  Level Washington Center
Sun 07:25:21 AM 37.8339 -76.9433 223° Southwest 240 276 18,000 50 Level Washington Center
Sun 07:26:18 AM 37.7833 -77.0003 222° Southwest 240 276 18,100  Climbing Washington Center
Sun 07:27:20 AM 37.7347 -77.0569 223° Southwest 240 276 18,000 -49 Descending Washington Center
Sun 07:28:20 AM 37.6819 -77.1136 220° Southwest 240 276 18,000  Level Washington Center
Sun 07:29:21 AM 37.6331 -77.1731 224° Southwest 240 276 18,000  Level Washington Center
Sun 07:30:20 AM 37.5822 -77.2297 221° Southwest 240 276 18,000 50 Level Washington Center
Sun 07:31:21 AM 37.5314 -77.2861 221° Southwest 240 276 18,100 51 Climbing Washington Center
Sun 07:32:18 AM 37.4844 -77.3558 230° Southwest 240 276 18,100 -51 Level Washington Center
Sun 07:33:19 AM 37.4458 -77.4281 236° Southwest 240 276 18,000 -49 Descending Washington Center
Sun 07:34:20 AM 37.4094 -77.4978 237° Southwest 240 276 18,000  Level Washington Center
Sun 07:35:21 AM 37.3706 -77.5675 235° Southwest 245 282 18,000  Level Washington Center
Sun 07:36:21 AM 37.3361 -77.6344 237° Southwest 245 282 18,000  Level Washington Center
Sun 07:37:19 AM 37.2975 -77.7067 236° Southwest 251 289 18,000  Level Washington Center
Sun 07:38:20 AM 37.2606 -77.7761 236° Southwest 251 289 18,000  Level Washington Center
Sun 07:39:21 AM 37.2239 -77.8453 236° Southwest 251 289 18,000  Level Washington Center
Sun 07:40:19 AM 37.1850 -77.9172 236° Southwest 251 289 18,000  Level Washington Center
Sun 07:41:19 AM 37.1481 -77.9864 236° Southwest 251 289 18,000 -50 Level Washington Center
Sun 07:42:20 AM 37.1092 -78.0556 235° Southwest 257 296 17,900 -313 Descending Washington Center
Sun 07:43:33 AM 37.0700 -78.1297 237° Southwest 257 296 17,300 -641 Descending Washington Center
Sun 07:44:31 AM 37.0286 -78.2117 238° Southwest 257 296 16,500 -756 Descending Washington Center
Sun 07:45:32 AM 36.9875 -78.2883 236° Southwest 257 296 15,800 -787 Descending Washington Center
Sun 07:46:33 AM 36.9439 -78.3647 234° Southwest 262 302 14,900 -857 Descending Washington Center
Sun 07:47:31 AM 36.9025 -78.4386 235° Southwest 262 302 14,100 -958 Descending Washington Center
Sun 07:48:32 AM 36.8589 -78.5228 237° Southwest 262 302 13,000 -1,059 Descending Washington Center
Sun 07:49:30 AM 36.8172 -78.5989 236° Southwest 262 302 12,000 -958 Descending Washington Center
Sun 07:50:31 AM 36.7736 -78.6725 234° Southwest 262 302 11,100 -942 Descending Washington Center
Sun 07:51:31 AM 36.7342 -78.7486 237° Southwest 262 302 10,100 -942 Descending Washington Center
Sun 07:52:32 AM 36.6908 -78.8089 228° Southwest 262 302 9,200 -836 Descending Washington Center
Sun 07:53:33 AM 36.6306 -78.8764 222° Southwest 262 302 8,400 -750 Descending Washington Center
Sun 07:54:32 AM 36.5769 -78.9336 221° Southwest 262 302 7,700 -718 Descending Washington Center
Sun 07:55:30 AM 36.5208 -78.9908 219° Southwest 262 302 7,000 -706 Descending Washington Center
Sun 07:56:31 AM 36.4672 -79.0453 219° Southwest 262 302 6,300 -689 Descending Washington Center
Sun 07:57:32 AM 36.4136 -79.0997 219° Southwest 262 302 5,600 -689 Descending Washington Center
Sun 07:59:00 AM 36.3239 -79.1459 203° Southwest  Level FlightAware Approximate
Sun 08:06:00 AM 36.0333 -79.4667 231° Southwest  Level FlightAware Approximate
Sun 08:07:00 AM 36.0485 -79.4749 231° Southwest  Level Estimated
Sun 08:08:00 AM 36.0485 -79.4749 231° Southwest  Level Estimated
Sun 08:09:00 AM 36.0485 -79.4749 231° Southwest  Level Estimated
Sun 08:10:00 AM 36.0485 -79.4749 231° Southwest  Level Estimated
Sun 08:11:00 AM 36.0485 -79.4749 231° Southwest  Level Estimated
Sun 08:12:00 AM 36.0485 -79.4749 231° Southwest  Level Estimated

Login

Don't have an account? Register now (free) for customized features, flight alerts, and more!